Terminal Aerodrome Forecast
Issued by NWS

Home | Current Version | Previous Version | Text Only | Print | Product List | Glossary On
Versions: 1 2 3 4 5 6 7 8 9 10 11 12 13
212
FTUS43 KGRB 161133
TAFMTW
TAF
KMTW 161133Z 1612/1712 26005KT P6SM SCT080
     FM161600 24011G17KT P6SM SCT200
     FM162300 22007KT P6SM SKC
     FM170400 22008KT P6SM SKC WS008/24035KT=

USA.gov is the U.S. government's official web portal to all federal, state and local government web resources and services.